createdAt,value
2019-01-24T00:00:00.040Z,35.20
2019-01-24T00:02:28.646Z,39.53
2019-01-24T00:04:57.248Z,36.67
2019-01-24T00:07:25.936Z,36.90
2019-01-24T00:09:54.516Z,38.60
2019-01-24T00:12:42.441Z,36.40
2019-01-24T00:15:11.054Z,39.90
2019-01-24T00:17:59.004Z,38.80
2019-01-24T00:20:46.914Z,46.10
2019-01-24T00:23:15.501Z,49.47
2019-01-24T00:26:03.399Z,41.00
2019-01-24T00:28:51.331Z,43.00
2019-01-24T00:31:19.959Z,38.37
2019-01-24T00:33:48.579Z,44.40
2019-01-24T00:36:17.216Z,47.33
2019-01-24T00:38:45.815Z,45.47
2019-01-24T00:41:33.737Z,44.83
2019-01-24T00:44:21.644Z,45.70
2019-01-24T00:47:09.564Z,41.17
2019-01-24T00:49:38.145Z,40.67
2019-01-24T00:52:26.084Z,47.93
2019-01-24T00:54:54.672Z,41.70
2019-01-24T00:57:23.489Z,50.10
2019-01-24T00:59:52.074Z,49.27
2019-01-24T01:02:20.725Z,43.47
2019-01-24T01:04:49.315Z,44.53
2019-01-24T01:07:37.228Z,49.17
2019-01-24T01:10:25.148Z,46.13
2019-01-24T01:13:13.319Z,43.07
2019-01-24T01:15:41.899Z,48.10
2019-01-24T01:18:10.715Z,40.60
2019-01-24T01:23:27.020Z,45.40
2019-01-24T01:25:55.596Z,48.47
2019-01-24T01:28:24.435Z,43.57
2019-01-24T01:30:53.001Z,47.07
2019-01-24T01:33:21.937Z,42.97
2019-01-24T01:36:10.049Z,46.97
2019-01-24T01:38:58.199Z,49.43
2019-01-24T01:41:46.123Z,50.30
2019-01-24T01:44:34.028Z,50.27
2019-01-24T01:47:22.181Z,50.90
2019-01-24T01:49:51.003Z,48.47
2019-01-24T01:52:19.575Z,44.87
2019-01-24T01:55:07.496Z,48.90
2019-01-24T01:57:36.079Z,52.47
2019-01-24T02:00:24.188Z,50.40
2019-01-24T02:03:12.111Z,51.00
2019-01-24T02:06:00.072Z,49.97
2019-01-24T02:08:28.652Z,53.80
2019-01-24T02:11:16.592Z,47.50
2019-01-24T02:13:45.207Z,50.70
2019-01-24T02:16:25.684Z,49.60
2019-01-24T02:19:06.218Z,56.93
2019-01-24T02:21:47.086Z,48.70
2019-01-24T02:24:15.669Z,51.20
2019-01-24T02:27:03.595Z,47.63
2019-01-24T02:29:51.512Z,45.97
2019-01-24T02:32:39.477Z,45.27
2019-01-24T02:35:08.779Z,44.50
2019-01-24T02:37:37.378Z,59.83
2019-01-24T02:40:25.321Z,50.43
2019-01-24T02:43:13.297Z,54.37
2019-01-24T02:46:01.225Z,53.13
2019-01-24T02:48:49.135Z,54.20
2019-01-24T02:51:37.062Z,45.53
2019-01-24T02:54:25.027Z,54.40
2019-01-24T02:57:13.023Z,54.30
2019-01-24T03:00:00.975Z,55.40
2019-01-24T03:02:29.587Z,52.83
2019-01-24T03:05:18.355Z,49.33
2019-01-24T03:07:46.976Z,57.93
2019-01-24T03:10:34.925Z,51.93
2019-01-24T03:13:22.869Z,53.77
2019-01-24T03:15:51.490Z,54.53
2019-01-24T03:18:39.387Z,50.90
2019-01-24T03:21:27.372Z,52.53
2019-01-24T03:24:15.550Z,49.43
2019-01-24T03:27:03.529Z,50.60
2019-01-24T03:29:51.489Z,54.67
2019-01-24T03:32:39.445Z,51.97
2019-01-24T03:35:27.361Z,57.77
2019-01-24T03:38:15.270Z,54.20
2019-01-24T03:40:43.868Z,56.00
2019-01-24T03:43:31.787Z,54.30
2019-01-24T03:46:19.699Z,54.67
2019-01-24T03:49:07.645Z,59.90
2019-01-24T03:51:55.569Z,54.60
2019-01-24T03:54:43.551Z,55.23
2019-01-24T03:57:31.526Z,52.13
2019-01-24T04:00:00.364Z,51.20
2019-01-24T04:02:48.353Z,59.10
2019-01-24T04:05:16.974Z,53.97
2019-01-24T04:07:45.575Z,51.70
2019-01-24T04:10:33.487Z,58.03
2019-01-24T04:13:02.052Z,57.83
2019-01-24T04:15:43.237Z,53.20
2019-01-24T04:18:23.932Z,57.93
2019-01-24T04:21:04.737Z,50.40
2019-01-24T04:23:33.629Z,60.77
2019-01-24T04:26:21.552Z,53.27
2019-01-24T04:29:09.470Z,48.93
2019-01-24T04:31:38.094Z,58.03
2019-01-24T04:34:25.997Z,52.37
2019-01-24T04:36:54.616Z,59.77
2019-01-24T04:39:42.783Z,60.43
2019-01-24T04:42:30.725Z,59.63
2019-01-24T04:45:18.900Z,62.77
2019-01-24T04:48:06.847Z,57.50
2019-01-24T04:50:54.781Z,60.70
2019-01-24T04:53:42.785Z,57.97
2019-01-24T04:56:30.699Z,53.90
2019-01-24T04:59:18.864Z,56.97
2019-01-24T05:01:47.465Z,58.60
2019-01-24T05:04:16.049Z,57.63
2019-01-24T05:07:03.989Z,56.60
2019-01-24T05:09:32.831Z,62.37
2019-01-24T05:12:20.770Z,56.33
2019-01-24T05:15:08.668Z,56.60
2019-01-24T05:17:37.265Z,61.53
2019-01-24T05:20:25.190Z,54.20
2019-01-24T05:23:13.475Z,61.93
2019-01-24T05:26:01.380Z,61.50
2019-01-24T05:31:25.357Z,61.87
2019-01-24T05:34:13.286Z,55.50
2019-01-24T05:37:03.292Z,56.77
2019-01-24T05:39:51.200Z,58.10
2019-01-24T05:42:39.433Z,57.30
2019-01-24T05:45:27.369Z,63.17
2019-01-24T05:48:15.524Z,58.97
2019-01-24T05:51:06.768Z,54.40
2019-01-24T05:54:09.573Z,62.17
2019-01-24T05:56:44.628Z,61.90
2019-01-24T05:59:32.825Z,61.10
2019-01-24T06:02:21.244Z,57.83
2019-01-24T06:05:09.673Z,60.50
2019-01-24T06:07:57.610Z,55.83
2019-01-24T06:10:46.074Z,58.57
2019-01-24T06:13:33.974Z,69.20
2019-01-24T06:16:15.382Z,55.23
2019-01-24T06:18:55.705Z,59.43
2019-01-24T06:21:36.220Z,61.23
2019-01-24T06:24:04.876Z,59.37
2019-01-24T06:26:53.064Z,59.93
2019-01-24T06:32:49.392Z,59.70
2019-01-24T06:35:37.345Z,63.00
2019-01-24T06:38:25.308Z,63.73
2019-01-24T06:41:13.509Z,67.60
2019-01-24T06:44:01.461Z,67.17
2019-01-24T06:46:37.405Z,63.30
2019-01-24T06:49:25.356Z,60.67
2019-01-24T06:51:53.967Z,64.23
2019-01-24T06:54:22.548Z,65.13
2019-01-24T06:57:10.969Z,68.30
2019-01-24T06:59:39.557Z,62.53
2019-01-24T07:02:27.524Z,66.07
2019-01-24T07:04:56.121Z,63.20
2019-01-24T07:07:25.016Z,64.40
2019-01-24T07:10:13.892Z,69.63
2019-01-24T07:12:42.589Z,68.23
2019-01-24T07:15:30.756Z,73.40
2019-01-24T07:18:12.105Z,66.63
2019-01-24T07:20:52.857Z,66.73
2019-01-24T07:23:33.670Z,63.43
2019-01-24T07:26:02.597Z,62.17
2019-01-24T07:28:31.459Z,64.63
2019-01-24T07:31:00.078Z,73.27
2019-01-24T07:33:28.677Z,67.40
2019-01-24T07:36:16.637Z,70.43
2019-01-24T07:38:45.243Z,76.67
2019-01-24T07:41:33.202Z,71.00
2019-01-24T07:44:01.786Z,74.53
2019-01-24T07:46:30.910Z,69.40
2019-01-24T07:49:19.107Z,69.07
2019-01-24T07:51:47.967Z,74.07
2019-01-24T07:54:35.896Z,71.30
2019-01-24T07:57:23.864Z,69.67
2019-01-24T08:00:13.296Z,77.63
2019-01-24T08:03:01.264Z,68.70
2019-01-24T08:05:49.494Z,67.90
2019-01-24T08:08:37.426Z,75.83
2019-01-24T08:11:25.338Z,68.83
2019-01-24T08:13:54.014Z,68.60
2019-01-24T08:16:22.622Z,71.83
2019-01-24T08:19:10.574Z,70.60
2019-01-24T08:21:39.160Z,71.70
2019-01-24T08:24:27.204Z,69.23
2019-01-24T08:27:15.133Z,62.47
2019-01-24T08:30:03.168Z,74.40
2019-01-24T08:32:51.109Z,75.53
2019-01-24T08:35:39.064Z,66.50
2019-01-24T08:38:26.989Z,73.30
2019-01-24T08:41:14.920Z,73.87
2019-01-24T08:44:03.184Z,73.10
2019-01-24T08:46:51.120Z,72.00
2019-01-24T08:49:39.328Z,71.30
2019-01-24T08:52:27.302Z,75.97
2019-01-24T08:55:16.456Z,79.23
2019-01-24T08:58:04.641Z,72.93
2019-01-24T09:00:52.552Z,79.83
2019-01-24T09:03:21.425Z,79.60
2019-01-24T09:06:09.345Z,74.77
2019-01-24T09:08:57.305Z,72.37
2019-01-24T09:11:45.197Z,79.87
2019-01-24T09:14:33.396Z,78.40
2019-01-24T09:17:13.900Z,76.30
2019-01-24T09:19:42.540Z,73.37
2019-01-24T09:22:11.128Z,73.70
2019-01-24T09:24:39.711Z,76.43
2019-01-24T09:27:08.341Z,76.43
2019-01-24T09:29:37.183Z,72.10
2019-01-24T09:32:25.394Z,71.70
2019-01-24T09:34:53.989Z,81.33
2019-01-24T09:37:41.909Z,77.50
2019-01-24T09:40:29.822Z,70.27
2019-01-24T09:43:17.785Z,79.57
2019-01-24T09:45:46.355Z,78.97
2019-01-24T09:48:14.973Z,69.70
2019-01-24T09:51:02.996Z,78.27
2019-01-24T09:53:31.872Z,70.47
2019-01-24T09:56:19.802Z,73.90
2019-01-24T09:59:07.964Z,73.20
2019-01-24T10:01:56.251Z,71.97
2019-01-24T10:04:44.197Z,69.50
2019-01-24T10:07:12.769Z,73.10
2019-01-24T10:10:00.988Z,84.00
2019-01-24T10:12:30.127Z,71.73
2019-01-24T10:15:18.168Z,71.63
2019-01-24T10:17:59.440Z,72.20
2019-01-24T10:20:28.499Z,72.37
2019-01-24T10:22:57.365Z,79.40
2019-01-24T10:25:28.111Z,66.47
2019-01-24T10:28:16.292Z,72.57
2019-01-24T10:31:04.225Z,73.07
2019-01-24T10:33:52.185Z,70.07
2019-01-24T10:36:20.848Z,68.97
2019-01-24T10:38:49.445Z,70.87
2019-01-24T10:41:37.429Z,80.30
2019-01-24T10:44:25.346Z,73.90
2019-01-24T10:47:13.282Z,74.77
2019-01-24T10:50:01.221Z,69.40
2019-01-24T10:52:29.853Z,70.07
2019-01-24T10:54:58.441Z,65.40
2019-01-24T10:57:27.021Z,78.90
2019-01-24T10:59:55.625Z,64.07
2019-01-24T11:02:43.780Z,66.33
2019-01-24T11:05:13.383Z,67.67
2019-01-24T11:07:42.224Z,70.97
2019-01-24T11:10:10.884Z,69.53
2019-01-24T11:12:59.083Z,67.37
2019-01-24T11:15:47.036Z,66.73
2019-01-24T11:18:15.633Z,66.57
2019-01-24T11:21:03.569Z,65.37
2019-01-24T11:23:51.512Z,63.70
2019-01-24T11:26:39.477Z,73.60
2019-01-24T11:29:08.121Z,76.63
2019-01-24T11:31:36.717Z,63.47
2019-01-24T11:34:05.298Z,72.90
2019-01-24T11:36:57.056Z,64.97
2019-01-24T11:39:23.609Z,59.77
2019-01-24T11:41:52.189Z,64.80
2019-01-24T11:44:40.130Z,67.87
2019-01-24T11:47:28.336Z,64.80
2019-01-24T11:49:56.935Z,66.00
2019-01-24T11:52:25.577Z,66.57
2019-01-24T11:55:14.005Z,64.67
2019-01-24T11:57:42.596Z,67.80
2019-01-24T12:00:34.335Z,66.47
2019-01-24T12:03:22.252Z,66.90
2019-01-24T12:06:10.473Z,62.30
2019-01-24T12:08:58.429Z,63.70
2019-01-24T12:11:27.537Z,58.43
2019-01-24T12:13:56.148Z,58.20
2019-01-24T12:16:24.749Z,56.17
2019-01-24T12:19:06.107Z,59.47
2019-01-24T12:21:34.706Z,60.27
2019-01-24T12:24:22.888Z,63.23
2019-01-24T12:26:51.516Z,64.07
2019-01-24T12:29:40.157Z,54.13
2019-01-24T12:32:08.727Z,56.60
2019-01-24T12:34:37.308Z,58.77
2019-01-24T12:37:11.321Z,64.43
2019-01-24T12:39:36.220Z,62.33
2019-01-24T12:42:05.085Z,59.10
2019-01-24T12:44:33.692Z,57.73
2019-01-24T12:47:02.353Z,58.00
2019-01-24T12:49:50.277Z,63.43
2019-01-24T12:52:38.224Z,57.27
2019-01-24T12:55:07.308Z,58.60
2019-01-24T12:57:36.162Z,60.07
2019-01-24T13:00:25.073Z,53.00
2019-01-24T13:03:13.023Z,54.73
2019-01-24T13:05:41.635Z,53.17
2019-01-24T13:08:10.497Z,57.83
2019-01-24T13:10:58.937Z,59.93
2019-01-24T13:13:27.565Z,54.70
2019-01-24T13:15:56.435Z,57.70
2019-01-24T13:18:25.096Z,55.93
2019-01-24T13:20:53.733Z,51.43
2019-01-24T13:23:41.649Z,55.13
2019-01-24T13:26:10.509Z,53.80
2019-01-24T13:28:58.437Z,57.90
2019-01-24T13:31:27.042Z,52.13
2019-01-24T13:34:14.961Z,53.23
2019-01-24T13:37:02.897Z,53.63
2019-01-24T13:39:51.049Z,52.67
2019-01-24T13:42:19.929Z,51.30
2019-01-24T13:44:48.776Z,50.80
2019-01-24T13:47:36.785Z,54.73
2019-01-24T13:50:25.000Z,54.60
2019-01-24T13:52:53.647Z,54.33
2019-01-24T13:55:41.574Z,55.60
2019-01-24T13:58:10.217Z,52.10
2019-01-24T14:00:40.396Z,57.90
2019-01-24T14:03:30.786Z,48.87
2019-01-24T14:06:18.775Z,55.80
2019-01-24T14:09:08.270Z,53.87
2019-01-24T14:11:56.165Z,47.20
2019-01-24T14:14:44.117Z,53.40
2019-01-24T14:17:25.134Z,51.90
2019-01-24T14:20:06.469Z,58.10
2019-01-24T14:22:35.528Z,56.70
2019-01-24T14:25:23.746Z,61.33
2019-01-24T14:28:11.908Z,87.40
2019-01-24T14:30:59.850Z,75.67
2019-01-24T14:33:48.022Z,80.20
2019-01-24T14:36:35.972Z,73.77
2019-01-24T14:39:23.924Z,72.70
2019-01-24T14:42:11.876Z,70.53
2019-01-24T14:44:40.533Z,68.97
2019-01-24T14:47:28.509Z,75.80
2019-01-24T14:49:57.224Z,69.23
2019-01-24T14:52:25.808Z,71.17
2019-01-24T14:55:13.776Z,74.43
2019-01-24T14:57:42.406Z,64.03
2019-01-24T15:00:32.101Z,70.87
2019-01-24T15:03:00.980Z,68.70
2019-01-24T15:05:29.623Z,65.77
2019-01-24T15:07:58.282Z,67.37
2019-01-24T15:10:46.358Z,64.97
2019-01-24T15:13:34.541Z,57.53
2019-01-24T15:16:03.163Z,63.17
2019-01-24T15:18:44.390Z,70.47
2019-01-24T15:21:24.843Z,69.00
2019-01-24T15:24:02.818Z,61.63
2019-01-24T15:26:31.492Z,71.80
2019-01-24T15:29:00.160Z,64.00
2019-01-24T15:31:28.757Z,76.60
2019-01-24T15:34:16.843Z,64.33
2019-01-24T15:37:04.837Z,67.60
2019-01-24T15:39:52.813Z,66.70
2019-01-24T15:42:40.782Z,70.33
2019-01-24T15:45:10.513Z,63.10
2019-01-24T15:47:39.149Z,73.23
2019-01-24T15:50:09.223Z,67.97
2019-01-24T15:52:38.123Z,75.57
2019-01-24T15:55:06.832Z,65.10
2019-01-24T15:57:35.456Z,69.20
2019-01-24T16:00:05.792Z,71.67
2019-01-24T16:02:34.397Z,66.90
2019-01-24T16:05:03.002Z,75.13
2019-01-24T16:07:53.145Z,74.20
2019-01-24T16:10:22.361Z,72.33
2019-01-24T16:12:51.000Z,68.33
2019-01-24T16:15:22.236Z,79.13
2019-01-24T16:17:51.155Z,69.50
2019-01-24T16:20:21.044Z,68.23
2019-01-24T16:23:09.241Z,68.53
2019-01-24T16:25:38.246Z,68.17
2019-01-24T16:28:06.856Z,77.83
2019-01-24T16:30:36.146Z,70.33
2019-01-24T16:33:24.333Z,77.40
2019-01-24T16:35:52.999Z,71.33
2019-01-24T16:38:21.638Z,81.03
2019-01-24T16:40:50.459Z,79.57
2019-01-24T16:43:19.162Z,74.93
2019-01-24T16:45:48.293Z,86.07
2019-01-24T16:48:16.920Z,68.17
2019-01-24T16:51:05.090Z,68.60
2019-01-24T16:53:33.760Z,91.07
2019-01-24T16:56:02.580Z,75.60
2019-01-24T16:58:31.499Z,77.60
2019-01-24T17:01:04.780Z,69.63
2019-01-24T17:03:33.384Z,80.83
2019-01-24T17:06:01.983Z,76.13
2019-01-24T17:08:30.593Z,78.83
2019-01-24T17:10:59.220Z,76.83
2019-01-24T17:13:47.168Z,73.53
2019-01-24T17:16:35.406Z,69.67
2019-01-24T17:19:04.117Z,78.73
2019-01-24T17:21:52.575Z,76.13
2019-01-24T17:24:21.249Z,78.57
2019-01-24T17:26:50.105Z,75.50
2019-01-24T17:29:18.724Z,81.03
2019-01-24T17:31:47.364Z,77.33
2019-01-24T17:34:15.969Z,81.03
2019-01-24T17:36:43.851Z,80.47
2019-01-24T17:39:31.882Z,77.93
2019-01-24T17:42:00.539Z,84.43
2019-01-24T17:44:33.696Z,77.83
2019-01-24T17:47:01.399Z,73.73
2019-01-24T17:49:30.308Z,82.17
2019-01-24T17:52:18.272Z,79.93
2019-01-24T17:55:07.941Z,80.83
2019-01-24T17:57:36.656Z,78.23
2019-01-24T18:00:26.777Z,86.87
2019-01-24T18:02:55.388Z,89.10
2019-01-24T18:05:24.100Z,88.47
2019-01-24T18:07:52.831Z,87.07
2019-01-24T18:10:23.231Z,90.87
2019-01-24T18:12:51.833Z,84.90
2019-01-24T18:15:40.046Z,77.10
2019-01-24T18:18:10.793Z,84.73
2019-01-24T18:20:39.515Z,106.73
2019-01-24T18:23:08.239Z,96.80
2019-01-24T18:25:37.309Z,95.83
2019-01-24T18:28:07.638Z,87.90
2019-01-24T18:30:36.451Z,91.57
2019-01-24T18:33:05.624Z,91.13
2019-01-24T18:35:34.497Z,88.60
2019-01-24T18:38:03.334Z,93.63
2019-01-24T18:40:51.614Z,110.80
2019-01-24T18:43:39.897Z,127.03
2019-01-24T18:46:28.347Z,107.97
2019-01-24T18:48:57.285Z,103.87
2019-01-24T18:51:45.357Z,94.90
2019-01-24T18:54:14.307Z,97.73
2019-01-24T18:56:43.293Z,97.77
2019-01-24T18:59:12.072Z,90.73
2019-01-24T19:01:40.724Z,90.40
2019-01-24T19:04:09.684Z,91.03
2019-01-24T19:06:38.622Z,86.70
2019-01-24T19:09:08.989Z,91.10
2019-01-24T19:11:37.738Z,87.30
2019-01-24T19:14:06.622Z,93.30
2019-01-24T19:16:56.182Z,80.17
2019-01-24T19:19:24.910Z,93.07
2019-01-24T19:21:53.925Z,96.23
2019-01-24T19:24:23.378Z,93.80
2019-01-24T19:26:52.114Z,88.40
2019-01-24T19:29:21.103Z,96.43
2019-01-24T19:31:49.799Z,89.43
2019-01-24T19:34:19.282Z,87.80
2019-01-24T19:36:48.265Z,85.03
2019-01-24T19:39:16.977Z,81.93
2019-01-24T19:41:45.684Z,99.30
2019-01-24T19:44:15.858Z,102.47
2019-01-24T19:46:46.224Z,99.10
2019-01-24T19:49:15.192Z,95.10
2019-01-24T19:51:45.505Z,91.40
2019-01-24T19:54:14.268Z,88.57
2019-01-24T19:56:43.318Z,90.37
2019-01-24T19:59:12.266Z,92.60
2019-01-24T20:01:40.999Z,88.80
2019-01-24T20:04:09.800Z,86.73
2019-01-24T20:06:38.515Z,87.93
2019-01-24T20:09:08.020Z,91.83
2019-01-24T20:11:36.811Z,86.73
2019-01-24T20:14:05.629Z,87.93
2019-01-24T20:16:34.414Z,77.93
2019-01-24T20:19:03.137Z,86.10
2019-01-24T20:21:32.001Z,82.10
2019-01-24T20:24:00.856Z,85.73
2019-01-24T20:26:29.577Z,88.93
2019-01-24T20:28:58.448Z,93.07
2019-01-24T20:31:27.354Z,100.77
2019-01-24T20:33:56.187Z,96.90
2019-01-24T20:36:24.883Z,102.80
2019-01-24T20:38:53.905Z,96.37
2019-01-24T20:41:22.937Z,91.97
2019-01-24T20:43:51.864Z,94.33
2019-01-24T20:46:20.606Z,91.13
2019-01-24T20:48:49.425Z,90.37
2019-01-24T20:51:18.202Z,93.63
2019-01-24T20:53:46.941Z,90.83
2019-01-24T20:56:15.802Z,84.07
2019-01-24T20:58:44.912Z,89.20
2019-01-24T21:01:13.660Z,92.43
2019-01-24T21:03:42.413Z,95.33
2019-01-24T21:06:11.290Z,90.43
2019-01-24T21:08:40.093Z,87.87
2019-01-24T21:11:08.858Z,89.07
2019-01-24T21:13:37.626Z,92.20
2019-01-24T21:16:06.293Z,91.73
2019-01-24T21:18:35.797Z,87.63
2019-01-24T21:21:04.488Z,90.37
2019-01-24T21:23:33.267Z,87.37
2019-01-24T21:26:02.002Z,91.47
2019-01-24T21:28:30.764Z,91.30
2019-01-24T21:30:59.541Z,93.97
2019-01-24T21:33:28.549Z,87.87
2019-01-24T21:35:57.361Z,98.93
2019-01-24T21:38:26.121Z,86.97
2019-01-24T21:40:54.926Z,91.90
2019-01-24T21:43:23.715Z,97.30
2019-01-24T21:45:52.685Z,92.10
2019-01-24T21:48:21.675Z,93.63
2019-01-24T21:50:50.621Z,91.30
2019-01-24T21:53:19.378Z,94.80
2019-01-24T21:55:48.089Z,96.37
2019-01-24T21:58:17.011Z,92.73
2019-01-24T22:00:45.746Z,100.30
2019-01-24T22:03:14.475Z,104.20
2019-01-24T22:05:43.256Z,102.83
2019-01-24T22:08:12.057Z,106.60
2019-01-24T22:10:40.851Z,92.03
2019-01-24T22:13:09.588Z,104.77
2019-01-24T22:15:38.421Z,95.87
2019-01-24T22:18:07.316Z,100.43
2019-01-24T22:20:36.028Z,92.70
2019-01-24T22:23:05.084Z,100.33
2019-01-24T22:25:34.916Z,91.13
2019-01-24T22:28:03.974Z,89.27
2019-01-24T22:30:41.013Z,91.63
2019-01-24T22:33:09.878Z,97.83
2019-01-24T22:35:38.549Z,92.23
2019-01-24T22:38:07.812Z,94.30
2019-01-24T22:40:37.500Z,100.07
2019-01-24T22:43:06.617Z,84.10
2019-01-24T22:45:36.150Z,92.97
2019-01-24T22:48:05.943Z,101.13
2019-01-24T22:50:34.684Z,94.07
2019-01-24T22:53:03.805Z,87.47
2019-01-24T22:55:32.781Z,94.20
2019-01-24T22:58:01.584Z,96.40
2019-01-24T23:01:10.608Z,88.07
2019-01-24T23:03:48.648Z,97.33
2019-01-24T23:06:17.267Z,91.57
2019-01-24T23:09:07.051Z,102.80
2019-01-24T23:11:55.243Z,89.83
2019-01-24T23:14:23.917Z,99.13
2019-01-24T23:17:11.866Z,94.33
2019-01-24T23:19:53.083Z,102.07
2019-01-24T23:22:21.692Z,91.20
2019-01-24T23:24:50.570Z,92.83
2019-01-24T23:27:38.853Z,90.17
2019-01-24T23:30:26.471Z,97.87
2019-01-24T23:33:14.393Z,94.00
2019-01-24T23:35:43.070Z,95.10
2019-01-24T23:38:11.727Z,89.93
2019-01-24T23:40:59.933Z,88.20
2019-01-24T23:43:28.548Z,99.23
2019-01-24T23:45:57.536Z,96.77
2019-01-24T23:48:45.479Z,100.47
2019-01-24T23:51:26.677Z,95.17
2019-01-24T23:54:07.649Z,94.57
2019-01-24T23:56:36.256Z,93.33
